Aeroporto :
LOGIN :

Iscrizione | Disclaimer

   EN    FR    IT 

 










Sommario :    VFR   VFR Marginale   IFR   IFR Intensivo   IFR Molto Intensivo
Visibilità : 
Base nubi : 
>= 8 km
>= 3000ft
5 / 8 km
1000 / 3000 ft
1500m / 5 km
500 / 1000 ft
800 / 1500m
200 / 500 ft
< 800m
< 200 ft
Simboli :   Temporali  Nebbia  Neve Forte  Precipitazioni Forti  Vento > 20 kt
SIGMETs :   Varie  Temporali  Ghiacco  Turbolenza  Onda orograficha  Ceneri Vulcaniche






- Altitudine del aeroporto : 194 ft


EBCV - Chièvres

ULTIMO METAR :
  • 280725Z AUTO 06012KT 9999 NCD 14/06 Q1033 BLU

METARs OBSOLETI :
  • 280655Z AUTO 06012KT 9999 NCD 13/06 Q1033 BLU
  • 280625Z AUTO 06012KT 9999 NCD 13/05 Q1033 BLU
  • 280555Z AUTO 06011KT 9999 NCD 12/06 Q1033 BLU
  • 280525Z AUTO 05010KT 9999 NCD 11/06 Q1033 BLU
  • 280455Z AUTO 04009KT 9999 NCD 10/06 Q1033 BLU

TAF TAF EBCV
Valido dal 28 a 07 ore il 28 a 16 ore UTC


280541Z 2807/2816 05508KT 9999 FEW220 BY EBWM



MetMap, La meteo Aeronautica in un colpo d'occhio ! - Copyright ORBIFLY Dicembre 2007 - Disclaimer

ORBIFLY MET'MAP TEAM :

Programmazione e sviluppo : Alexandra Zaïnal
Concezione : Baudouin d'Aumeries
Aiuto per la programmazione : Marc-Olivier Méhu
Supporto tecnico e logistico : Manuel Goepfert
Aiuto per la traduzione : Arnaldo La Scala

Contatto : metmap@orbifly.com




FONTI E CREDITI :

   NOAA